createdAt,value
2019-06-10T00:01:41.710Z,3.70
2019-06-10T00:04:12.410Z,3.52
2019-06-10T00:07:04.192Z,3.50
2019-06-10T00:09:34.130Z,4.28
2019-06-10T00:12:04.745Z,4.08
2019-06-10T00:14:34.892Z,3.98
2019-06-10T00:17:05.113Z,3.42
2019-06-10T00:19:35.848Z,3.50
2019-06-10T00:22:06.820Z,3.75
2019-06-10T00:24:36.745Z,4.33
2019-06-10T00:27:07.180Z,4.05
2019-06-10T00:29:37.491Z,3.70
2019-06-10T00:32:08.548Z,3.75
2019-06-10T00:34:38.282Z,3.50
2019-06-10T00:37:13.537Z,3.52
2019-06-10T00:39:40.867Z,3.40
2019-06-10T00:42:14.626Z,3.55
2019-06-10T00:44:41.755Z,3.72
2019-06-10T00:47:14.689Z,3.52
2019-06-10T00:49:42.508Z,3.85
2019-06-10T00:52:13.984Z,3.67
2019-06-10T00:54:43.823Z,4.15
2019-06-10T00:57:13.809Z,3.27
2019-06-10T00:59:43.437Z,3.40
2019-06-10T01:02:14.520Z,3.47
2019-06-10T01:04:45.819Z,3.55
2019-06-10T01:07:15.322Z,4.05
2019-06-10T01:09:44.884Z,3.60
2019-06-10T01:12:15.027Z,3.35
2019-06-10T01:14:44.848Z,3.67
2019-06-10T01:17:15.422Z,4.08
2019-06-10T01:19:45.474Z,3.95
2019-06-10T01:22:15.893Z,3.80
2019-06-10T01:24:46.276Z,3.55
2019-06-10T01:27:15.780Z,4.00
2019-06-10T01:29:45.277Z,3.60
2019-06-10T01:32:15.144Z,3.98
2019-06-10T01:34:44.880Z,3.70
2019-06-10T01:37:16.011Z,3.72
2019-06-10T01:39:45.707Z,3.80
2019-06-10T01:42:16.786Z,3.58
2019-06-10T01:44:46.675Z,3.70
2019-06-10T01:47:17.574Z,3.80
2019-06-10T01:49:47.395Z,4.05
2019-06-10T01:52:18.203Z,3.95
2019-06-10T01:54:47.989Z,4.42
2019-06-10T01:57:18.630Z,3.35
2019-06-10T01:59:50.890Z,3.77
2019-06-10T02:02:23.670Z,3.65
2019-06-10T02:04:51.922Z,4.28
2019-06-10T02:07:23.040Z,3.10
2019-06-10T02:09:52.803Z,3.83
2019-06-10T02:12:24.120Z,3.35
2019-06-10T02:14:55.945Z,4.47
2019-06-10T02:17:27.109Z,4.08
2019-06-10T02:19:56.602Z,3.77
2019-06-10T02:22:26.102Z,3.87
2019-06-10T02:24:55.602Z,3.47
2019-06-10T02:27:25.246Z,3.70
2019-06-10T02:29:54.850Z,4.47
2019-06-10T02:32:33.021Z,4.03
2019-06-10T02:35:08.208Z,4.05
2019-06-10T02:37:32.128Z,3.62
2019-06-10T02:40:04.074Z,3.72
2019-06-10T02:42:53.815Z,3.15
2019-06-10T02:45:44.510Z,3.75
2019-06-10T02:48:15.407Z,3.33
2019-06-10T02:50:54.446Z,3.45
2019-06-10T02:53:30.246Z,3.90
2019-06-10T02:55:58.041Z,3.65
2019-06-10T02:58:31.532Z,3.65
2019-06-10T03:00:58.870Z,4.15
2019-06-10T03:03:39.240Z,3.80
2019-06-10T03:05:59.918Z,4.03
2019-06-10T03:08:32.819Z,3.83
2019-06-10T03:11:03.654Z,3.47
2019-06-10T03:13:33.199Z,4.70
2019-06-10T03:16:03.112Z,4.42
2019-06-10T03:18:33.661Z,3.75
2019-06-10T03:21:03.173Z,4.25
2019-06-10T03:23:32.733Z,4.62
2019-06-10T03:26:04.062Z,4.37
2019-06-10T03:28:33.461Z,4.28
2019-06-10T03:31:05.660Z,4.53
2019-06-10T03:33:40.827Z,4.05
2019-06-10T03:36:05.465Z,4.45
2019-06-10T03:38:36.969Z,3.83
2019-06-10T03:41:06.299Z,4.53
2019-06-10T03:43:35.875Z,3.70
2019-06-10T03:46:05.485Z,3.87
2019-06-10T03:48:34.973Z,4.10
2019-06-10T03:51:04.542Z,3.98
2019-06-10T03:53:34.101Z,4.83
2019-06-10T03:56:03.760Z,4.55
2019-06-10T03:58:34.461Z,4.28
2019-06-10T04:01:04.041Z,4.62
2019-06-10T04:03:34.066Z,4.17
2019-06-10T04:06:04.693Z,4.62
2019-06-10T04:08:34.225Z,4.72
2019-06-10T04:11:03.803Z,4.35
2019-06-10T04:13:33.902Z,5.12
2019-06-10T04:16:04.895Z,4.75
2019-06-10T04:18:34.382Z,4.50
2019-06-10T04:21:03.960Z,5.30
2019-06-10T04:23:33.705Z,5.40
2019-06-10T04:26:03.263Z,4.65
2019-06-10T04:28:33.721Z,5.22
2019-06-10T04:31:03.669Z,4.87
2019-06-10T04:33:33.220Z,5.10
2019-06-10T04:36:03.139Z,5.70
2019-06-10T04:38:33.053Z,4.58
2019-06-10T04:41:03.388Z,5.37
2019-06-10T04:43:33.223Z,5.08
2019-06-10T04:46:02.808Z,5.65
2019-06-10T04:48:32.875Z,5.80
2019-06-10T04:51:03.028Z,4.50
2019-06-10T04:53:35.616Z,4.70
2019-06-10T04:56:05.442Z,5.47
2019-06-10T04:58:36.094Z,5.80
2019-06-10T05:01:05.701Z,5.58
2019-06-10T05:03:35.183Z,4.85
2019-06-10T05:06:04.680Z,5.28
2019-06-10T05:08:34.171Z,5.12
2019-06-10T05:11:04.008Z,4.90
2019-06-10T05:13:34.658Z,5.03
2019-06-10T05:16:04.684Z,4.75
2019-06-10T05:18:34.295Z,5.33
2019-06-10T05:21:03.826Z,5.75
2019-06-10T05:23:33.398Z,4.90
2019-06-10T05:26:04.116Z,4.62
2019-06-10T05:28:34.358Z,5.00
2019-06-10T05:31:05.396Z,4.50
2019-06-10T05:33:37.805Z,4.53
2019-06-10T05:36:08.935Z,4.50
2019-06-10T05:38:38.501Z,4.15
2019-06-10T05:41:08.090Z,4.40
2019-06-10T05:43:37.686Z,4.60
2019-06-10T05:46:07.266Z,4.67
2019-06-10T05:48:36.755Z,4.33
2019-06-10T05:51:07.001Z,3.85
2019-06-10T05:53:36.704Z,3.50
2019-06-10T05:56:06.399Z,4.17
2019-06-10T05:58:36.084Z,4.03
2019-06-10T06:01:05.665Z,3.55
2019-06-10T06:03:37.056Z,3.75
2019-06-10T06:06:06.724Z,4.42
2019-06-10T06:08:37.479Z,4.17
2019-06-10T06:11:07.403Z,3.75
2019-06-10T06:13:38.028Z,4.08
2019-06-10T06:16:08.638Z,4.92
2019-06-10T06:18:38.395Z,4.50
2019-06-10T06:32:43.571Z,4.05
2019-06-10T06:35:13.504Z,3.95
2019-06-10T06:37:43.158Z,4.75
2019-06-10T06:40:14.831Z,4.60
2019-06-10T06:42:44.665Z,4.55
2019-06-10T06:45:18.322Z,5.42
2019-06-10T06:47:48.048Z,4.90
2019-06-10T06:50:18.206Z,4.55
2019-06-10T06:53:18.991Z,4.28
2019-06-10T06:55:19.226Z,4.53
2019-06-10T06:57:48.895Z,4.17
2019-06-10T07:00:38.268Z,3.80
2019-06-10T07:02:53.285Z,3.70
2019-06-10T07:05:23.023Z,4.37
2019-06-10T07:07:53.113Z,4.00
2019-06-10T07:10:23.028Z,4.75
2019-06-10T07:12:54.165Z,4.35
2019-06-10T07:15:28.423Z,4.92
2019-06-10T07:17:58.235Z,4.15
2019-06-10T07:20:27.927Z,4.80
2019-06-10T07:22:59.593Z,4.47
2019-06-10T07:25:32.139Z,4.40
2019-06-10T07:28:23.016Z,4.72
2019-06-10T07:30:55.363Z,3.80
2019-06-10T07:33:25.551Z,4.30
2019-06-10T07:35:56.604Z,4.08
2019-06-10T07:38:26.826Z,4.65
2019-06-10T07:40:58.282Z,4.47
2019-06-10T07:43:28.275Z,4.47
2019-06-10T07:45:58.092Z,5.25
2019-06-10T07:48:27.839Z,4.40
2019-06-10T07:50:57.714Z,4.12
2019-06-10T07:53:27.489Z,4.25
2019-06-10T07:55:57.355Z,4.37
2019-06-10T07:58:27.934Z,4.90
2019-06-10T08:04:54.183Z,4.15
2019-06-10T08:18:23.853Z,5.65
2019-06-10T08:20:53.462Z,4.95
2019-06-10T08:30:14.236Z,5.30
2019-06-10T08:32:33.482Z,5.15
2019-06-10T08:40:33.797Z,4.78
2019-06-10T08:43:13.285Z,4.20
2019-06-10T08:45:45.282Z,4.45
2019-06-10T08:48:27.634Z,4.80
2019-06-10T08:51:08.520Z,4.28
2019-06-10T08:53:39.378Z,4.53
2019-06-10T08:56:09.247Z,4.28
2019-06-10T08:58:40.934Z,4.03
2019-06-10T09:01:12.689Z,3.95
2019-06-10T09:03:45.977Z,3.95
2019-06-10T09:06:13.496Z,3.85
2019-06-10T09:08:46.382Z,3.27
2019-06-10T09:11:14.286Z,4.50
2019-06-10T09:13:47.154Z,4.42
2019-06-10T09:16:19.360Z,4.08
2019-06-10T09:18:50.840Z,3.80
2019-06-10T09:22:13.547Z,3.90
2019-06-10T09:24:48.742Z,4.17
2019-06-10T09:27:14.521Z,3.90
2019-06-10T09:29:47.832Z,3.83
2019-06-10T09:35:39.904Z,3.85
2019-06-10T09:38:10.149Z,3.40
2019-06-10T09:44:41.658Z,3.92
2019-06-10T09:51:35.566Z,4.25
2019-06-10T09:54:06.639Z,4.40
2019-06-10T09:56:36.477Z,4.00
2019-06-10T09:59:08.251Z,4.03
2019-06-10T10:01:37.764Z,4.10
2019-06-10T10:04:07.431Z,4.10
2019-06-10T10:06:37.163Z,4.90
2019-06-10T10:09:07.629Z,4.85
2019-06-10T10:11:37.141Z,4.70
2019-06-10T10:14:10.207Z,4.70
2019-06-10T10:16:37.992Z,5.50
2019-06-10T10:19:07.593Z,4.50
2019-06-10T10:21:37.100Z,4.97
2019-06-10T10:24:10.753Z,5.55
2019-06-10T10:26:37.934Z,5.47
2019-06-10T10:29:07.578Z,5.42
2019-06-10T10:31:37.226Z,4.37
2019-06-10T10:34:06.746Z,5.10
2019-06-10T10:39:08.602Z,4.87
2019-06-10T10:41:38.338Z,5.37
2019-06-10T10:44:07.912Z,5.25
2019-06-10T10:46:37.494Z,6.20
2019-06-10T10:49:07.076Z,5.95
2019-06-10T10:51:38.826Z,6.03
2019-06-10T10:54:22.403Z,5.50
2019-06-10T10:56:39.682Z,6.47
2019-06-10T10:59:09.252Z,8.33
2019-06-10T11:01:38.902Z,6.58
2019-06-10T11:04:08.615Z,6.05
2019-06-10T11:06:38.114Z,6.10
2019-06-10T11:09:13.028Z,5.95
2019-06-10T11:11:43.998Z,5.72
2019-06-10T11:14:15.247Z,6.47
2019-06-10T11:16:45.313Z,6.05
2019-06-10T11:19:14.882Z,5.97
2019-06-10T11:21:45.297Z,5.47
2019-06-10T11:24:32.871Z,6.22
2019-06-10T11:26:47.831Z,5.10
2019-06-10T11:29:17.563Z,6.95
2019-06-10T11:31:48.430Z,5.70
2019-06-10T11:34:19.881Z,4.85
2019-06-10T11:36:50.446Z,5.17
2019-06-10T11:39:22.451Z,5.25
2019-06-10T11:41:53.299Z,4.70
2019-06-10T11:44:22.779Z,4.97
2019-06-10T11:46:54.894Z,6.05
2019-06-10T11:49:23.867Z,6.10
2019-06-10T11:51:55.974Z,5.67
2019-06-10T11:54:24.654Z,5.10
2019-06-10T11:56:56.462Z,6.72
2019-06-10T11:59:25.531Z,6.00
2019-06-10T12:01:56.893Z,5.92
2019-06-10T12:04:26.322Z,5.97
2019-06-10T12:06:57.054Z,6.20
2019-06-10T12:09:26.932Z,5.58
2019-06-10T12:12:01.379Z,6.20
2019-06-10T12:14:27.936Z,6.97
2019-06-10T12:17:24.547Z,5.87
2019-06-10T12:19:33.530Z,6.53
2019-06-10T12:22:06.627Z,6.37
2019-06-10T12:24:33.234Z,5.85
2019-06-10T12:27:05.008Z,6.47
2019-06-10T12:29:35.115Z,6.00
2019-06-10T12:32:07.138Z,5.75
2019-06-10T12:34:35.915Z,5.62
2019-06-10T12:37:11.955Z,5.47
2019-06-10T12:39:36.741Z,5.55
2019-06-10T12:42:06.771Z,5.42
2019-06-10T12:44:36.381Z,5.03
2019-06-10T12:47:08.215Z,6.17
2019-06-10T12:49:37.244Z,5.53
2019-06-10T12:52:07.693Z,5.45
2019-06-10T12:54:37.302Z,5.37
2019-06-10T12:57:07.216Z,6.47
2019-06-10T12:59:36.896Z,6.53
2019-06-10T13:02:16.775Z,5.25
2019-06-10T13:04:38.814Z,4.62
2019-06-10T13:07:09.000Z,5.15
2019-06-10T13:09:40.143Z,5.10
2019-06-10T13:12:12.301Z,4.90
2019-06-10T13:14:43.927Z,4.12
2019-06-10T13:17:13.462Z,5.00
2019-06-10T13:19:43.348Z,5.33
2019-06-10T13:22:13.201Z,4.80
2019-06-10T13:24:42.702Z,5.10
2019-06-10T13:27:12.208Z,5.22
2019-06-10T13:29:43.941Z,5.42
2019-06-10T13:32:13.604Z,5.47
2019-06-10T13:34:44.342Z,4.80
2019-06-10T13:37:16.173Z,4.40
2019-06-10T13:39:45.164Z,4.20
2019-06-10T13:42:14.928Z,5.83
2019-06-10T13:44:44.502Z,5.35
2019-06-10T13:47:15.708Z,5.97
2019-06-10T13:49:45.268Z,5.12
2019-06-10T13:52:16.799Z,5.33
2019-06-10T13:54:46.432Z,5.75
2019-06-10T13:57:16.013Z,6.00
2019-06-10T13:59:46.523Z,5.35
2019-06-10T14:02:16.625Z,5.53
2019-06-10T14:04:46.189Z,5.30
2019-06-10T14:07:17.215Z,4.78
2019-06-10T14:09:47.107Z,4.60
2019-06-10T14:12:17.796Z,4.28
2019-06-10T14:14:47.740Z,4.35
2019-06-10T14:17:19.399Z,3.70
2019-06-10T14:19:48.460Z,4.05
2019-06-10T14:22:17.976Z,4.20
2019-06-10T14:24:47.471Z,3.72
2019-06-10T14:27:21.187Z,3.85
2019-06-10T14:29:48.285Z,4.55
2019-06-10T14:32:25.737Z,4.50
2019-06-10T14:34:57.006Z,3.62
2019-06-10T14:37:38.049Z,3.90
2019-06-10T14:40:00.503Z,4.10
2019-06-10T14:42:32.187Z,4.10
2019-06-10T14:45:01.336Z,2.45
2019-06-10T14:47:32.497Z,2.10
2019-06-10T14:50:03.282Z,1.00
2019-06-10T14:52:33.485Z,1.00
2019-06-10T14:55:05.248Z,0.88
2019-06-10T14:57:34.910Z,1.00
2019-06-10T15:00:23.825Z,0.80
2019-06-10T15:02:54.042Z,1.10
2019-06-10T15:05:23.715Z,1.00
2019-06-10T15:07:53.212Z,0.90
2019-06-10T15:10:23.457Z,0.90
2019-06-10T15:12:53.129Z,1.07
2019-06-10T15:15:23.814Z,1.10
2019-06-10T15:17:53.392Z,1.32
2019-06-10T15:20:23.009Z,1.40
2019-06-10T15:22:52.829Z,1.40
2019-06-10T15:25:27.807Z,1.40
2019-06-10T15:27:53.625Z,1.37
2019-06-10T15:30:27.198Z,1.37
2019-06-10T15:32:54.497Z,1.32
2019-06-10T15:35:24.595Z,1.65
2019-06-10T15:37:54.402Z,1.80
2019-06-10T15:40:23.891Z,1.95
2019-06-10T15:42:53.534Z,1.52
2019-06-10T15:45:23.127Z,1.55
2019-06-10T15:47:53.205Z,1.52
2019-06-10T15:50:23.814Z,1.77
2019-06-10T15:52:53.898Z,1.77
2019-06-10T15:55:49.097Z,2.27
2019-06-10T15:57:54.674Z,1.65
2019-06-10T16:00:29.180Z,1.98
2019-06-10T16:02:56.711Z,2.30
2019-06-10T16:05:26.295Z,2.27
2019-06-10T16:07:55.802Z,2.58
2019-06-10T16:10:27.785Z,2.65
2019-06-10T16:12:57.676Z,2.62
2019-06-10T16:15:27.338Z,2.60
2019-06-10T16:17:56.838Z,2.25
2019-06-10T16:20:26.422Z,2.05
2019-06-10T16:22:56.053Z,2.20
2019-06-10T16:25:26.659Z,2.02
2019-06-10T16:27:56.397Z,1.92
2019-06-10T16:30:26.197Z,2.27
2019-06-10T16:32:55.677Z,1.98
2019-06-10T16:35:26.944Z,2.47
2019-06-10T16:38:16.952Z,1.85
2019-06-10T16:40:46.706Z,1.50
2019-06-10T16:43:16.195Z,1.98
2019-06-10T16:45:45.770Z,2.00
2019-06-10T16:48:15.258Z,1.87
2019-06-10T16:50:47.121Z,1.80
2019-06-10T16:53:15.959Z,1.90
2019-06-10T16:55:45.489Z,1.85
2019-06-10T16:58:16.199Z,1.98
2019-06-10T17:00:45.776Z,2.10
2019-06-10T17:03:15.284Z,1.60
2019-06-10T17:05:44.795Z,1.62
2019-06-10T17:08:14.308Z,1.75
2019-06-10T17:10:43.827Z,1.90
2019-06-10T17:13:13.525Z,1.75
2019-06-10T17:15:43.167Z,2.20
2019-06-10T17:18:13.167Z,1.92
2019-06-10T17:20:43.117Z,2.40
2019-06-10T17:23:12.641Z,1.72
2019-06-10T17:25:42.799Z,2.10
2019-06-10T17:28:18.260Z,2.60
2019-06-10T17:30:43.763Z,2.08
2019-06-10T17:33:13.328Z,2.30
2019-06-10T17:35:43.303Z,2.67
2019-06-10T17:38:14.066Z,2.83
2019-06-10T17:40:43.578Z,2.15
2019-06-10T17:43:13.259Z,2.62
2019-06-10T17:45:43.929Z,2.22
2019-06-10T17:48:13.503Z,1.98
2019-06-10T17:50:43.175Z,1.90
2019-06-10T17:53:12.903Z,2.55
2019-06-10T17:55:42.405Z,2.20
2019-06-10T17:58:13.096Z,2.22
2019-06-10T18:00:42.919Z,2.02
2019-06-10T18:03:13.139Z,2.27
2019-06-10T18:05:42.709Z,1.90
2019-06-10T18:08:13.113Z,1.85
2019-06-10T18:11:03.241Z,2.15
2019-06-10T18:13:35.875Z,2.30
2019-06-10T18:16:04.475Z,2.40
2019-06-10T18:18:37.094Z,2.58
2019-06-10T18:21:05.377Z,2.42
2019-06-10T18:23:35.207Z,2.47
2019-06-10T18:26:04.988Z,1.95
2019-06-10T18:28:52.748Z,2.60
2019-06-10T18:31:06.701Z,2.27
2019-06-10T18:33:55.561Z,2.05
2019-06-10T18:36:26.115Z,2.00
2019-06-10T18:38:55.749Z,2.40
2019-06-10T18:41:25.219Z,2.20
2019-06-10T18:43:54.848Z,2.42
2019-06-10T18:46:24.347Z,2.47
2019-06-10T18:48:53.852Z,2.25
2019-06-10T18:51:23.446Z,2.12
2019-06-10T18:53:52.928Z,2.30
2019-06-10T18:56:23.194Z,1.80
2019-06-10T18:58:53.138Z,2.15
2019-06-10T19:01:22.801Z,2.45
2019-06-10T19:03:52.289Z,2.50
2019-06-10T19:06:22.959Z,2.95
2019-06-10T19:08:53.165Z,3.90
2019-06-10T19:11:22.784Z,3.33
2019-06-10T19:13:52.901Z,3.10
2019-06-10T19:16:23.455Z,2.62
2019-06-10T19:18:53.191Z,2.45
2019-06-10T19:21:22.707Z,3.00
2019-06-10T19:23:53.190Z,2.55
2019-06-10T19:26:22.926Z,2.85
2019-06-10T19:28:53.403Z,2.52
2019-06-10T19:31:23.030Z,2.67
2019-06-10T19:33:52.689Z,2.70
2019-06-10T19:36:23.157Z,2.55
2019-06-10T19:38:53.002Z,2.80
2019-06-10T19:41:22.496Z,2.25
2019-06-10T19:43:52.980Z,2.52
2019-06-10T19:46:23.449Z,2.52
2019-06-10T19:48:59.575Z,2.90
2019-06-10T19:51:24.443Z,2.72
2019-06-10T19:53:53.954Z,2.55
2019-06-10T19:56:26.352Z,2.87
2019-06-10T19:58:54.771Z,2.47
2019-06-10T20:01:24.240Z,2.70
2019-06-10T20:03:53.763Z,2.72
2019-06-10T20:06:23.329Z,2.98
2019-06-10T20:08:52.830Z,2.60
2019-06-10T20:11:22.933Z,2.52
2019-06-10T20:13:53.084Z,2.50
2019-06-10T20:16:22.937Z,3.00
2019-06-10T20:18:53.640Z,2.55
2019-06-10T20:21:23.556Z,2.60
2019-06-10T20:23:53.159Z,3.30
2019-06-10T20:26:27.788Z,3.00
2019-06-10T20:28:56.761Z,3.12
2019-06-10T20:31:26.264Z,2.72
2019-06-10T20:33:56.475Z,2.83
2019-06-10T20:36:27.183Z,2.47
2019-06-10T20:39:00.099Z,2.70
2019-06-10T20:41:33.050Z,2.87
2019-06-10T20:44:02.880Z,2.55
2019-06-10T20:46:32.609Z,2.83
2019-06-10T20:49:03.248Z,3.00
2019-06-10T20:51:46.186Z,2.47
2019-06-10T20:54:04.295Z,2.52
2019-06-10T20:56:33.824Z,2.98
2019-06-10T20:59:03.482Z,3.08
2019-06-10T21:01:33.264Z,2.67
2019-06-10T21:04:03.937Z,2.62
2019-06-10T21:06:35.189Z,2.70
2019-06-10T21:09:07.811Z,2.60
2019-06-10T21:11:37.542Z,2.75
2019-06-10T21:14:07.188Z,2.67
2019-06-10T21:16:36.955Z,2.65
2019-06-10T21:19:06.474Z,2.47
2019-06-10T21:21:36.023Z,2.20
2019-06-10T21:24:05.608Z,2.65
2019-06-10T21:26:36.236Z,2.75
2019-06-10T21:29:05.923Z,2.98
2019-06-10T21:31:35.425Z,2.65
2019-06-10T21:34:05.106Z,2.80
2019-06-10T21:36:34.667Z,2.75
2019-06-10T21:39:07.031Z,3.00
2019-06-10T21:41:36.567Z,2.80
2019-06-10T21:44:06.170Z,3.08
2019-06-10T21:46:35.757Z,3.17
2019-06-10T21:49:05.459Z,2.90
2019-06-10T21:51:34.988Z,3.15
2019-06-10T21:54:04.578Z,3.85
2019-06-10T21:56:34.213Z,4.22
2019-06-10T21:59:03.821Z,3.65
2019-06-10T22:01:33.495Z,3.52
2019-06-10T22:04:04.511Z,4.03
2019-06-10T22:06:34.557Z,4.08
2019-06-10T22:09:06.161Z,4.12
2019-06-10T22:11:35.825Z,4.00
2019-06-10T22:14:05.373Z,3.58
2019-06-10T22:16:34.905Z,3.50
2019-06-10T22:19:04.541Z,4.00
2019-06-10T22:21:34.041Z,4.42
2019-06-10T22:24:03.635Z,4.33
2019-06-10T22:26:33.139Z,4.25
2019-06-10T22:29:02.627Z,3.90
2019-06-10T22:31:32.666Z,3.98
2019-06-10T22:34:03.351Z,4.10
2019-06-10T22:36:33.089Z,3.65
2019-06-10T22:39:03.167Z,4.78
2019-06-10T22:41:34.548Z,3.75
2019-06-10T22:44:04.104Z,4.35
2019-06-10T22:46:33.691Z,4.28
2019-06-10T22:49:04.522Z,4.17
2019-06-10T22:51:34.220Z,4.90
2019-06-10T22:54:03.940Z,4.15
2019-06-10T22:56:33.526Z,4.12
2019-06-10T22:59:03.552Z,4.47
2019-06-10T23:01:37.826Z,4.22
2019-06-10T23:04:04.768Z,4.53
2019-06-10T23:06:34.349Z,4.15
2019-06-10T23:09:05.338Z,4.92
2019-06-10T23:11:34.848Z,4.03
2019-06-10T23:14:04.500Z,4.58
2019-06-10T23:16:34.036Z,5.12
2019-06-10T23:19:03.650Z,4.15
2019-06-10T23:21:33.156Z,4.67
2019-06-10T23:24:03.302Z,4.00
2019-06-10T23:26:33.374Z,4.30
2019-06-10T23:29:04.372Z,3.67
2019-06-10T23:31:48.721Z,4.22
2019-06-10T23:34:07.254Z,4.05
2019-06-10T23:36:36.756Z,3.95
2019-06-10T23:39:07.014Z,4.17
2019-06-10T23:41:36.508Z,4.70
2019-06-10T23:44:06.255Z,3.50
2019-06-10T23:46:35.750Z,3.77
2019-06-10T23:49:05.399Z,3.62
2019-06-10T23:51:34.903Z,3.55
2019-06-10T23:54:06.201Z,3.45
2019-06-10T23:56:36.077Z,4.10
2019-06-10T23:59:05.578Z,3.83
